Terminal Aerodrome Forecast
Issued by NWS

Home | Current Version | Previous Version | Graphics & Text | Print | Product List | Glossary On
Versions: 1 2 3 4 5 6 7 8 9 10 11 12 13 14 15 16 17 18 19 20 21 22 23 24 25 26 27 28
000
FTUS43 KGRB 251136
TAFRHI
TAF
KRHI 251136Z 2512/2612 29009KT P6SM BKN008 OVC015
     FM251400 30011G18KT P6SM BKN015 OVC030
     FM251700 30011G18KT P6SM BKN025 BKN035
      TEMPO 2519/2523 -RA BKN015
     FM252300 31006KT P6SM BKN035 BKN050
     FM260300 34004KT P6SM SCT040
     FM260800 VRB02KT 4SM BR BKN015=

USA.gov is the U.S. government's official web portal to all federal, state and local government web resources and services.